createdAt,value
2017-03-28T00:01:15.476Z,23.08
2017-03-28T00:02:15.403Z,23.1
2017-03-28T00:03:15.337Z,23.09
2017-03-28T00:04:15.284Z,23.15
2017-03-28T00:05:15.212Z,23.08
2017-03-28T00:06:15.161Z,23.12
2017-03-28T00:07:15.095Z,23.08
2017-03-28T00:08:15.025Z,23.13
2017-03-28T00:09:14.966Z,23.17
2017-03-28T00:10:14.902Z,23.1
2017-03-28T00:11:14.843Z,23.09
2017-03-28T00:12:14.494Z,23.08
2017-03-28T00:13:14.417Z,23.13
2017-03-28T00:14:14.356Z,23.12
2017-03-28T00:15:14.593Z,23.09
2017-03-28T00:16:14.530Z,23.12
2017-03-28T00:17:14.467Z,23.09
2017-03-28T00:18:14.411Z,23.15
2017-03-28T00:19:14.347Z,23.13
2017-03-28T00:20:14.285Z,23.09
2017-03-28T00:21:14.223Z,23.1
2017-03-28T00:22:14.157Z,23.08
2017-03-28T00:23:14.101Z,23.17
2017-03-28T00:24:14.040Z,23.1
2017-03-28T00:25:13.972Z,23.06
2017-03-28T00:26:13.909Z,23.1
2017-03-28T00:27:13.868Z,23.1
2017-03-28T00:28:13.785Z,23.06
2017-03-28T00:29:13.728Z,23.08
2017-03-28T00:30:13.669Z,23.15
2017-03-28T00:31:13.599Z,23.09
2017-03-28T00:32:13.536Z,23.1
2017-03-28T00:33:13.476Z,23.1
2017-03-28T00:34:13.422Z,23.12
2017-03-28T00:35:13.348Z,23.05
2017-03-28T00:36:13.291Z,23.17
2017-03-28T00:37:13.228Z,23.12
2017-03-28T00:38:13.175Z,23.13
2017-03-28T00:39:13.118Z,23.12
2017-03-28T00:40:13.038Z,23.06
2017-03-28T00:41:12.986Z,23.1
2017-03-28T00:42:12.915Z,23.05
2017-03-28T00:43:12.852Z,23.05
2017-03-28T00:44:12.789Z,23.09
2017-03-28T00:45:12.726Z,23.1
2017-03-28T00:46:12.670Z,23.08
2017-03-28T00:47:12.610Z,23.08
2017-03-28T00:48:12.547Z,23.1
2017-03-28T00:49:12.483Z,23.1
2017-03-28T00:50:12.416Z,23.09
2017-03-28T00:51:12.374Z,23.05
2017-03-28T00:52:12.305Z,23.08
2017-03-28T00:53:12.255Z,23.1
2017-03-28T00:54:12.186Z,23.09
2017-03-28T00:55:12.118Z,23.09
2017-03-28T00:56:12.082Z,23.09
2017-03-28T00:57:11.993Z,23.08
2017-03-28T00:58:11.940Z,23.05
2017-03-28T00:59:11.872Z,23.1
2017-03-28T01:00:11.814Z,23.06
2017-03-28T01:01:11.731Z,23.09
2017-03-28T01:02:11.674Z,23.02
2017-03-28T01:03:11.614Z,23.08
2017-03-28T01:04:11.547Z,23.05
2017-03-28T01:05:11.481Z,23.08
2017-03-28T01:06:11.432Z,23.08
2017-03-28T01:07:11.361Z,23.02
2017-03-28T01:08:11.306Z,23.09
2017-03-28T01:09:11.237Z,23.08
2017-03-28T01:10:11.179Z,23.08
2017-03-28T01:11:11.114Z,23.05
2017-03-28T01:12:10.748Z,23.03
2017-03-28T01:13:10.690Z,23.05
2017-03-28T01:14:10.621Z,23.08
2017-03-28T01:15:10.264Z,22.99
2017-03-28T01:16:10.806Z,23
2017-03-28T01:17:10.738Z,23.06
2017-03-28T01:18:10.682Z,23.05
2017-03-28T01:19:10.625Z,23.08
2017-03-28T01:20:10.555Z,23.08
2017-03-28T01:21:10.488Z,23.02
2017-03-28T01:22:10.427Z,23.03
2017-03-28T01:23:10.366Z,23.02
2017-03-28T01:24:10.010Z,23.08
2017-03-28T01:25:10.242Z,23.06
2017-03-28T01:26:10.181Z,23.06
2017-03-28T01:27:10.122Z,22.99
2017-03-28T01:28:10.053Z,22.99
2017-03-28T01:29:09.989Z,23.09
2017-03-28T01:30:09.641Z,23.05
2017-03-28T01:31:09.875Z,23.06
2017-03-28T01:32:09.809Z,23.06
2017-03-28T01:33:09.751Z,23.05
2017-03-28T01:34:09.682Z,23.05
2017-03-28T01:35:09.620Z,23.03
2017-03-28T01:36:09.557Z,23.03
2017-03-28T01:37:09.497Z,23.03
2017-03-28T01:38:09.128Z,23.03
2017-03-28T01:39:09.070Z,23.03
2017-03-28T01:40:09.311Z,23
2017-03-28T01:41:09.244Z,23
2017-03-28T01:42:09.184Z,23.02
2017-03-28T01:43:08.833Z,23.03
2017-03-28T01:44:09.058Z,23.05
2017-03-28T01:45:08.997Z,22.98
2017-03-28T01:46:08.937Z,23.06
2017-03-28T01:47:08.569Z,23.05
2017-03-28T01:48:08.810Z,23.05
2017-03-28T01:49:08.752Z,23.02
2017-03-28T01:50:08.687Z,23.03
2017-03-28T01:51:08.626Z,23.08
2017-03-28T01:52:08.561Z,23.08
2017-03-28T01:53:08.197Z,23.09
2017-03-28T01:54:08.442Z,23.03
2017-03-28T01:55:08.070Z,23.03
2017-03-28T01:56:08.313Z,23.05
2017-03-28T01:57:08.250Z,23.06
2017-03-28T01:58:08.194Z,23.09
2017-03-28T01:59:08.127Z,23.03
2017-03-28T02:00:07.760Z,23.03
2017-03-28T02:01:08.000Z,23.1
2017-03-28T02:02:07.972Z,23.06
2017-03-28T02:03:07.884Z,23.05
2017-03-28T02:04:07.823Z,23.05
2017-03-28T02:05:07.459Z,23.08
2017-03-28T02:06:07.700Z,23.02
2017-03-28T02:07:07.630Z,23.03
2017-03-28T02:08:07.571Z,23.06
2017-03-28T02:09:07.515Z,23.02
2017-03-28T02:10:07.140Z,23.03
2017-03-28T02:11:07.381Z,23.05
2017-03-28T02:12:07.326Z,23.09
2017-03-28T02:13:07.254Z,23.06
2017-03-28T02:14:07.192Z,23.02
2017-03-28T02:15:07.132Z,23.08
2017-03-28T02:16:06.766Z,23.06
2017-03-28T02:17:07.016Z,23.03
2017-03-28T02:18:06.947Z,23.08
2017-03-28T02:19:06.581Z,23.03
2017-03-28T02:20:06.825Z,23.02
2017-03-28T02:21:06.764Z,23.03
2017-03-28T02:22:06.704Z,23.03
2017-03-28T02:23:06.642Z,23.06
2017-03-28T02:24:06.281Z,23.02
2017-03-28T02:25:06.510Z,23.02
2017-03-28T02:26:06.446Z,23.02
2017-03-28T02:27:06.085Z,23.03
2017-03-28T02:28:06.332Z,23.05
2017-03-28T02:29:06.261Z,23.05
2017-03-28T02:30:05.896Z,23.06
2017-03-28T02:31:06.137Z,23.03
2017-03-28T02:32:06.085Z,23.02
2017-03-28T02:33:06.011Z,23.05
2017-03-28T02:34:05.959Z,23.05
2017-03-28T02:35:05.584Z,23.02
2017-03-28T02:36:05.828Z,23
2017-03-28T02:37:05.762Z,22.99
2017-03-28T02:38:05.706Z,23
2017-03-28T02:39:05.648Z,22.98
2017-03-28T02:40:05.742Z,22.99
2017-03-28T02:41:05.514Z,23
2017-03-28T02:42:05.456Z,23.02
2017-03-28T02:43:05.392Z,23
2017-03-28T02:44:05.332Z,22.99
2017-03-28T02:45:05.263Z,23
2017-03-28T02:46:05.205Z,23.03
2017-03-28T02:47:05.142Z,22.96
2017-03-28T02:48:05.080Z,23.02
2017-03-28T02:49:05.017Z,23.02
2017-03-28T02:50:04.953Z,23
2017-03-28T02:51:04.892Z,22.99
2017-03-28T02:52:04.832Z,22.99
2017-03-28T02:53:04.766Z,23.02
2017-03-28T02:54:04.715Z,23.02
2017-03-28T02:55:04.649Z,23.06
2017-03-28T02:56:04.579Z,23.02
2017-03-28T02:57:04.516Z,22.99
2017-03-28T02:58:04.461Z,23.02
2017-03-28T02:59:04.405Z,23.02
2017-03-28T03:00:04.340Z,23.03
2017-03-28T03:01:04.269Z,22.98
2017-03-28T03:02:04.210Z,23.05
2017-03-28T03:03:04.146Z,23.02
2017-03-28T03:04:04.085Z,22.99
2017-03-28T03:05:04.024Z,22.99
2017-03-28T03:06:03.965Z,22.94
2017-03-28T03:07:03.912Z,23.02
2017-03-28T03:08:03.842Z,22.98
2017-03-28T03:09:03.790Z,23.03
2017-03-28T03:10:03.415Z,22.94
2017-03-28T03:11:03.648Z,23.02
2017-03-28T03:12:03.585Z,23
2017-03-28T03:13:03.527Z,23
2017-03-28T03:14:03.461Z,23.05
2017-03-28T03:15:03.405Z,23
2017-03-28T03:16:03.337Z,22.96
2017-03-28T03:17:03.273Z,23
2017-03-28T03:18:03.218Z,22.99
2017-03-28T03:19:03.154Z,22.96
2017-03-28T03:20:03.092Z,22.96
2017-03-28T03:21:03.022Z,22.98
2017-03-28T03:22:02.973Z,22.93
2017-03-28T03:23:02.904Z,22.93
2017-03-28T03:24:02.841Z,23
2017-03-28T03:25:02.783Z,23.02
2017-03-28T03:26:02.409Z,22.96
2017-03-28T03:27:02.654Z,22.96
2017-03-28T03:28:02.593Z,22.9
2017-03-28T03:29:02.542Z,23
2017-03-28T03:30:02.475Z,22.94
2017-03-28T03:31:02.411Z,22.94
2017-03-28T03:32:02.366Z,22.91
2017-03-28T03:33:02.282Z,23.03
2017-03-28T03:34:02.221Z,22.93
2017-03-28T03:35:02.162Z,22.93
2017-03-28T03:36:02.097Z,22.9
2017-03-28T03:37:02.036Z,22.99
2017-03-28T03:38:01.973Z,22.9
2017-03-28T03:39:01.914Z,22.98
2017-03-28T03:40:01.843Z,22.94
2017-03-28T03:41:01.786Z,22.87
2017-03-28T03:42:01.720Z,22.88
2017-03-28T03:43:01.658Z,22.9
2017-03-28T03:44:01.597Z,23
2017-03-28T03:45:01.534Z,22.99
2017-03-28T03:46:01.490Z,22.94
2017-03-28T03:47:01.410Z,22.98
2017-03-28T03:48:01.349Z,22.93
2017-03-28T03:49:01.286Z,22.93
2017-03-28T03:50:01.222Z,22.9
2017-03-28T03:51:01.158Z,22.9
2017-03-28T03:52:01.096Z,22.94
2017-03-28T03:53:01.040Z,22.9
2017-03-28T03:54:00.973Z,22.9
2017-03-28T03:55:00.917Z,22.98
2017-03-28T03:56:00.847Z,22.91
2017-03-28T03:57:00.784Z,22.93
2017-03-28T03:58:00.725Z,22.87
2017-03-28T03:59:00.660Z,22.91
2017-03-28T04:00:00.607Z,22.96
2017-03-28T04:01:00.538Z,22.98
2017-03-28T04:02:00.471Z,22.91
2017-03-28T04:03:00.415Z,23
2017-03-28T04:04:00.362Z,22.9
2017-03-28T04:05:00.287Z,22.93
2017-03-28T04:06:00.223Z,22.93
2017-03-28T04:06:59.868Z,22.88
2017-03-28T04:08:00.102Z,22.91
2017-03-28T04:09:00.052Z,22.88
2017-03-28T04:10:00.009Z,22.94
2017-03-28T04:10:59.915Z,22.94
2017-03-28T04:11:59.850Z,22.88
2017-03-28T04:12:59.790Z,22.91
2017-03-28T04:13:59.729Z,22.91
2017-03-28T04:14:59.668Z,22.96
2017-03-28T04:15:59.614Z,22.96
2017-03-28T04:16:59.541Z,22.88
2017-03-28T04:17:59.480Z,22.93
2017-03-28T04:18:59.412Z,22.91
2017-03-28T04:19:59.362Z,22.91
2017-03-28T04:20:58.713Z,22.93
2017-03-28T04:21:58.930Z,22.85
2017-03-28T04:22:58.862Z,22.91
2017-03-28T04:23:59.113Z,22.93
2017-03-28T04:24:59.045Z,22.91
2017-03-28T04:25:58.980Z,22.96
2017-03-28T04:26:58.915Z,22.93
2017-03-28T04:27:58.853Z,22.93
2017-03-28T04:28:58.797Z,22.98
2017-03-28T04:29:58.731Z,22.88
2017-03-28T04:30:58.670Z,22.91
2017-03-28T04:31:58.607Z,22.85
2017-03-28T04:32:58.545Z,22.91
2017-03-28T04:33:58.482Z,22.87
2017-03-28T04:34:58.418Z,22.85
2017-03-28T04:35:58.357Z,22.91
2017-03-28T04:36:58.294Z,22.93
2017-03-28T04:37:58.233Z,22.91
2017-03-28T04:38:58.169Z,22.83
2017-03-28T04:39:58.107Z,22.9
2017-03-28T04:40:58.043Z,22.78
2017-03-28T04:41:57.985Z,22.98
2017-03-28T04:42:57.923Z,22.83
2017-03-28T04:43:57.860Z,22.87
2017-03-28T04:44:57.800Z,22.78
2017-03-28T04:45:57.729Z,22.9
2017-03-28T04:46:57.670Z,22.88
2017-03-28T04:47:57.610Z,22.83
2017-03-28T04:48:57.337Z,22.8
2017-03-28T04:49:57.304Z,22.91
2017-03-28T04:50:57.574Z,22.91
2017-03-28T04:51:57.416Z,22.84
2017-03-28T04:52:57.318Z,22.8
2017-03-28T04:53:57.233Z,22.81
2017-03-28T04:54:57.179Z,22.83
2017-03-28T04:55:57.118Z,22.83
2017-03-28T04:56:56.763Z,22.81
2017-03-28T04:57:56.994Z,22.78
2017-03-28T04:58:56.936Z,22.8
2017-03-28T04:59:56.859Z,22.81
2017-03-28T05:00:56.804Z,22.8
2017-03-28T05:01:56.736Z,22.8
2017-03-28T05:02:56.683Z,22.84
2017-03-28T05:03:56.610Z,22.8
2017-03-28T05:04:56.572Z,22.84
2017-03-28T05:05:56.483Z,22.84
2017-03-28T05:06:56.122Z,22.81
2017-03-28T05:07:56.367Z,22.85
2017-03-28T05:08:56.297Z,22.84
2017-03-28T05:09:56.236Z,22.83
2017-03-28T05:10:56.170Z,22.76
2017-03-28T05:11:56.108Z,22.81
2017-03-28T05:12:56.053Z,22.81
2017-03-28T05:13:55.987Z,22.81
2017-03-28T05:14:55.923Z,22.8
2017-03-28T05:15:55.860Z,22.84
2017-03-28T05:16:55.810Z,22.84
2017-03-28T05:17:55.737Z,22.78
2017-03-28T05:18:55.684Z,22.83
2017-03-28T05:19:55.622Z,22.81
2017-03-28T05:20:55.548Z,22.75
2017-03-28T05:21:55.197Z,22.81
2017-03-28T05:22:55.422Z,22.8
2017-03-28T05:23:55.361Z,22.78
2017-03-28T05:24:55.304Z,22.85
2017-03-28T05:25:55.235Z,22.85
2017-03-28T05:26:55.172Z,22.81
2017-03-28T05:27:55.146Z,22.83
2017-03-28T05:28:55.056Z,22.8
2017-03-28T05:29:54.988Z,22.83
2017-03-28T05:30:54.928Z,22.73
2017-03-28T05:31:54.871Z,22.81
2017-03-28T05:32:54.812Z,22.75
2017-03-28T05:33:54.743Z,22.84
2017-03-28T05:34:54.676Z,22.83
2017-03-28T05:35:54.608Z,22.84
2017-03-28T05:36:54.560Z,22.81
2017-03-28T05:37:54.493Z,22.78
2017-03-28T05:38:54.134Z,22.9
2017-03-28T05:39:54.366Z,22.81
2017-03-28T05:40:54.304Z,22.81
2017-03-28T05:41:54.240Z,22.75
2017-03-28T05:42:54.178Z,22.84
2017-03-28T05:43:54.112Z,22.76
2017-03-28T05:44:54.053Z,22.81
2017-03-28T05:45:53.990Z,22.83
2017-03-28T05:46:53.935Z,22.83
2017-03-28T05:47:53.866Z,22.8
2017-03-28T05:48:53.811Z,22.83
2017-03-28T05:49:53.747Z,22.8
2017-03-28T05:50:53.682Z,22.8
2017-03-28T05:51:53.628Z,22.78
2017-03-28T05:52:53.246Z,22.85
2017-03-28T05:53:53.492Z,22.72
2017-03-28T05:54:53.443Z,22.8
2017-03-28T05:55:53.365Z,22.83
2017-03-28T05:56:53.316Z,22.8
2017-03-28T05:57:52.950Z,22.83
2017-03-28T05:58:53.176Z,22.75
2017-03-28T05:59:53.111Z,22.75
2017-03-28T06:00:52.750Z,22.81
2017-03-28T06:01:52.992Z,22.81
2017-03-28T06:02:52.642Z,22.8
2017-03-28T06:03:52.868Z,22.81
2017-03-28T06:04:52.801Z,22.81
2017-03-28T06:05:52.741Z,22.78
2017-03-28T06:06:52.679Z,22.76
2017-03-28T06:07:52.620Z,22.78
2017-03-28T06:08:52.563Z,22.81
2017-03-28T06:09:52.486Z,22.81
2017-03-28T06:10:52.434Z,22.83
2017-03-28T06:11:52.362Z,22.84
2017-03-28T06:12:52.310Z,22.81
2017-03-28T06:13:52.243Z,22.8
2017-03-28T06:14:52.179Z,22.81
2017-03-28T06:15:52.115Z,22.83
2017-03-28T06:16:52.050Z,22.83
2017-03-28T06:17:52.004Z,22.76
2017-03-28T06:18:51.937Z,22.76
2017-03-28T06:19:51.561Z,22.83
2017-03-28T06:20:51.811Z,22.85
2017-03-28T06:21:51.440Z,22.8
2017-03-28T06:22:51.682Z,22.78
2017-03-28T06:23:51.329Z,22.83
2017-03-28T06:24:51.562Z,22.87
2017-03-28T06:25:51.492Z,22.83
2017-03-28T06:26:51.430Z,22.81
2017-03-28T06:27:51.366Z,22.81
2017-03-28T06:28:51.307Z,22.88
2017-03-28T06:29:51.246Z,22.8
2017-03-28T06:30:51.177Z,22.8
2017-03-28T06:31:51.117Z,22.75
2017-03-28T06:32:51.057Z,22.84
2017-03-28T06:33:50.998Z,22.83
2017-03-28T06:34:50.926Z,22.8
2017-03-28T06:35:50.892Z,22.84
2017-03-28T06:36:50.804Z,22.8
2017-03-28T06:37:50.744Z,22.83
2017-03-28T06:38:50.687Z,22.83
2017-03-28T06:39:50.617Z,22.81
2017-03-28T06:40:50.561Z,22.83
2017-03-28T06:41:50.203Z,22.83
2017-03-28T06:42:50.434Z,22.81
2017-03-28T06:43:50.373Z,22.78
2017-03-28T06:44:50.303Z,22.83
2017-03-28T06:45:50.247Z,22.78
2017-03-28T06:46:50.187Z,22.83
2017-03-28T06:47:50.119Z,22.78
2017-03-28T06:48:50.069Z,22.81
2017-03-28T06:49:49.692Z,22.8
2017-03-28T06:50:49.931Z,22.88
2017-03-28T06:51:49.881Z,22.83
2017-03-28T06:52:49.806Z,22.88
2017-03-28T06:53:49.742Z,22.76
2017-03-28T06:54:49.681Z,22.83
2017-03-28T06:55:49.619Z,22.81
2017-03-28T06:56:49.554Z,22.88
2017-03-28T06:57:49.492Z,22.84
2017-03-28T06:58:49.433Z,22.75
2017-03-28T06:59:49.369Z,22.65
2017-03-28T07:00:49.654Z,22.47
2017-03-28T07:01:49.243Z,22.39
2017-03-28T07:02:49.183Z,22.51
2017-03-28T07:03:48.842Z,22.53
2017-03-28T07:04:49.063Z,22.55
2017-03-28T07:05:48.991Z,22.62
2017-03-28T07:06:48.939Z,22.75
2017-03-28T07:07:48.868Z,22.76
2017-03-28T07:08:48.838Z,22.66
2017-03-28T07:09:48.458Z,22.78
2017-03-28T07:10:48.704Z,22.76
2017-03-28T07:11:48.623Z,22.84
2017-03-28T07:12:48.555Z,22.7
2017-03-28T07:13:48.493Z,22.83
2017-03-28T07:14:48.430Z,22.76
2017-03-28T07:15:48.365Z,22.83
2017-03-28T07:16:48.306Z,22.87
2017-03-28T07:17:48.254Z,22.8
2017-03-28T07:18:48.180Z,22.84
2017-03-28T07:19:48.115Z,22.81
2017-03-28T07:20:48.056Z,22.84
2017-03-28T07:21:47.996Z,22.78
2017-03-28T07:22:47.939Z,22.87
2017-03-28T07:23:47.873Z,22.78
2017-03-28T07:24:47.804Z,22.9
2017-03-28T07:25:47.851Z,22.94
2017-03-28T07:26:47.678Z,22.8
2017-03-28T07:27:47.620Z,22.9
2017-03-28T07:28:47.563Z,22.94
2017-03-28T07:29:47.497Z,22.91
2017-03-28T07:30:47.378Z,22.99
2017-03-28T07:31:47.412Z,22.91
2017-03-28T07:32:47.305Z,22.96
2017-03-28T07:33:47.242Z,22.93
2017-03-28T07:34:46.878Z,22.98
2017-03-28T07:35:47.117Z,22.98
2017-03-28T07:36:47.052Z,22.98
2017-03-28T07:37:47.004Z,22.94
2017-03-28T07:38:46.935Z,23.03
2017-03-28T07:39:46.879Z,22.96
2017-03-28T07:40:46.830Z,23.02
2017-03-28T07:41:46.751Z,23
2017-03-28T07:42:46.686Z,23
2017-03-28T07:43:46.626Z,23
2017-03-28T07:44:46.251Z,23.03
2017-03-28T07:45:46.492Z,23.05
2017-03-28T07:46:46.441Z,23.03
2017-03-28T07:47:46.368Z,23.02
2017-03-28T07:48:46.307Z,23.03
2017-03-28T07:49:46.248Z,23.03
2017-03-28T07:50:46.181Z,23.02
2017-03-28T07:51:45.820Z,23.02
2017-03-28T07:52:46.078Z,23.05
2017-03-28T07:53:46.000Z,23.08
2017-03-28T07:54:45.935Z,23.05
2017-03-28T07:55:45.872Z,23.09
2017-03-28T07:56:45.510Z,23.08
2017-03-28T07:57:45.754Z,23.06
2017-03-28T07:58:45.685Z,23.09
2017-03-28T07:59:45.631Z,23.09
2017-03-28T08:00:46.709Z,23.18
2017-03-28T08:01:45.636Z,23.09
2017-03-28T08:02:45.522Z,23.1
2017-03-28T08:03:45.454Z,23.03
2017-03-28T08:04:45.315Z,22.99
2017-03-28T08:05:44.955Z,22.91
2017-03-28T08:06:45.191Z,22.78
2017-03-28T08:07:45.125Z,22.62
2017-03-28T08:08:45.067Z,22.62
2017-03-28T08:09:45.011Z,22.59
2017-03-28T08:10:44.942Z,22.51
2017-03-28T08:11:44.881Z,22.63
2017-03-28T08:12:44.825Z,22.55
2017-03-28T08:13:44.778Z,22.57
2017-03-28T08:14:44.694Z,22.6
2017-03-28T08:15:44.630Z,22.55
2017-03-28T08:16:44.570Z,22.5
2017-03-28T08:17:44.525Z,22.57
2017-03-28T08:18:44.447Z,22.48
2017-03-28T08:19:44.381Z,22.39
2017-03-28T08:20:44.012Z,22.36
2017-03-28T08:21:44.308Z,22.39
2017-03-28T08:22:44.187Z,22.36
2017-03-28T08:23:44.130Z,22.38
2017-03-28T08:24:43.761Z,22.39
2017-03-28T08:25:43.700Z,22.38
2017-03-28T08:26:43.938Z,22.41
2017-03-28T08:27:43.877Z,22.41
2017-03-28T08:28:43.819Z,22.39
2017-03-28T08:29:43.762Z,22.48
2017-03-28T08:30:43.853Z,22.44
2017-03-28T08:31:43.625Z,22.41
2017-03-28T08:32:43.564Z,22.45
2017-03-28T08:33:43.512Z,22.38
2017-03-28T08:34:43.147Z,22.41
2017-03-28T08:35:43.636Z,22.41
2017-03-28T08:36:42.711Z,22.25
2017-03-28T08:37:43.252Z,22.25
2017-03-28T08:38:43.188Z,22.25
2017-03-28T08:39:43.128Z,22.26
2017-03-28T08:40:43.063Z,22.25
2017-03-28T08:41:42.702Z,22.3
2017-03-28T08:42:42.943Z,22.35
2017-03-28T08:43:42.878Z,22.36
2017-03-28T08:44:42.813Z,22.36
2017-03-28T08:45:42.450Z,22.32
2017-03-28T08:46:42.384Z,22.33
2017-03-28T08:47:42.386Z,22.32
2017-03-28T08:48:42.566Z,22.33
2017-03-28T08:49:42.497Z,22.39
2017-03-28T08:50:42.444Z,22.36
2017-03-28T08:51:42.375Z,22.38
2017-03-28T08:52:42.314Z,22.41
2017-03-28T08:53:42.603Z,22.35
2017-03-28T08:54:42.191Z,22.33
2017-03-28T08:55:42.122Z,22.43
2017-03-28T08:56:42.063Z,22.33
2017-03-28T08:57:42.011Z,22.26
2017-03-28T08:58:41.939Z,22.29
2017-03-28T08:59:41.874Z,22.38
2017-03-28T09:00:41.903Z,22.33
2017-03-28T09:01:41.747Z,22.36
2017-03-28T09:02:41.691Z,22.38
2017-03-28T09:03:41.623Z,22.36
2017-03-28T09:04:41.557Z,22.33
2017-03-28T09:05:41.594Z,22.25
2017-03-28T09:06:41.433Z,22.28
2017-03-28T09:07:41.372Z,22.3
2017-03-28T09:08:41.305Z,22.18
2017-03-28T09:09:41.250Z,22.22
2017-03-28T09:10:41.185Z,22.29
2017-03-28T09:11:40.814Z,22.23
2017-03-28T09:12:41.052Z,22.22
2017-03-28T09:13:40.995Z,22.25
2017-03-28T09:14:40.934Z,22.17
2017-03-28T09:15:40.873Z,22.26
2017-03-28T09:16:40.809Z,22.23
2017-03-28T09:17:40.785Z,22.22
2017-03-28T09:18:40.676Z,22.11
2017-03-28T09:19:40.616Z,22.23
2017-03-28T09:20:40.552Z,22.26
2017-03-28T09:21:40.488Z,22.22
2017-03-28T09:22:40.425Z,22.29
2017-03-28T09:23:40.367Z,22.2
2017-03-28T09:24:40.330Z,22.22
2017-03-28T09:25:40.240Z,22.3
2017-03-28T09:26:40.170Z,22.14
2017-03-28T09:27:40.123Z,22.25
2017-03-28T09:28:40.049Z,22.3
2017-03-28T09:29:39.993Z,22.25
2017-03-28T09:30:39.929Z,22.22
2017-03-28T09:31:39.857Z,22.38
2017-03-28T09:32:39.810Z,22.35
2017-03-28T09:33:39.745Z,22.36
2017-03-28T09:34:39.677Z,22.44
2017-03-28T09:35:39.609Z,22.32
2017-03-28T09:36:39.896Z,22.35
2017-03-28T09:37:39.483Z,22.36
2017-03-28T09:38:39.426Z,22.38
2017-03-28T09:39:39.355Z,22.32
2017-03-28T09:40:39.299Z,22.33
2017-03-28T09:41:38.929Z,22.32
2017-03-28T09:42:39.168Z,22.33
2017-03-28T09:43:38.801Z,22.26
2017-03-28T09:44:38.750Z,22.25
2017-03-28T09:45:38.680Z,22.41
2017-03-28T09:46:38.920Z,22.35
2017-03-28T09:47:38.871Z,22.32
2017-03-28T09:48:38.795Z,22.29
2017-03-28T09:49:38.731Z,22.33
2017-03-28T09:50:38.670Z,22.36
2017-03-28T09:51:38.300Z,22.3
2017-03-28T09:52:38.243Z,22.28
2017-03-28T09:53:38.483Z,22.43
2017-03-28T09:54:38.422Z,22.39
2017-03-28T09:55:38.354Z,22.32
2017-03-28T09:56:38.288Z,22.35
2017-03-28T09:57:38.229Z,22.36
2017-03-28T09:58:38.171Z,22.39
2017-03-28T09:59:38.104Z,22.43
2017-03-28T10:00:38.038Z,22.33
2017-03-28T10:01:37.979Z,22.39
2017-03-28T10:02:37.914Z,22.38
2017-03-28T10:03:37.854Z,22.35
2017-03-28T10:04:37.792Z,22.45
2017-03-28T10:05:37.730Z,22.32
2017-03-28T10:06:37.658Z,22.36
2017-03-28T10:07:37.619Z,22.38
2017-03-28T10:08:37.538Z,22.38
2017-03-28T10:09:37.476Z,22.41
2017-03-28T10:10:37.137Z,22.33
2017-03-28T10:11:37.350Z,22.39
2017-03-28T10:12:37.283Z,22.44
2017-03-28T10:13:37.247Z,22.39
2017-03-28T10:14:36.865Z,22.38
2017-03-28T10:15:37.095Z,22.39
2017-03-28T10:16:37.056Z,22.41
2017-03-28T10:17:36.989Z,22.43
2017-03-28T10:18:36.915Z,22.45
2017-03-28T10:19:36.845Z,22.45
2017-03-28T10:20:36.782Z,22.47
2017-03-28T10:21:36.722Z,22.53
2017-03-28T10:22:36.660Z,22.53
2017-03-28T10:23:36.596Z,22.48
2017-03-28T10:24:36.536Z,22.53
2017-03-28T10:25:36.474Z,22.43
2017-03-28T10:26:36.409Z,22.53
2017-03-28T10:27:36.349Z,22.62
2017-03-28T10:28:36.279Z,22.47
2017-03-28T10:29:36.222Z,22.53
2017-03-28T10:30:36.156Z,22.47
2017-03-28T10:31:36.099Z,22.47
2017-03-28T10:32:36.034Z,22.45
2017-03-28T10:33:35.974Z,22.44
2017-03-28T10:34:35.903Z,22.44
2017-03-28T10:35:35.844Z,22.48
2017-03-28T10:36:35.781Z,22.54
2017-03-28T10:37:35.717Z,22.45
2017-03-28T10:38:35.657Z,22.45
2017-03-28T10:39:50.199Z,22.44
2017-03-28T10:40:35.535Z,22.48
2017-03-28T10:41:35.192Z,22.45
2017-03-28T10:42:34.802Z,22.45
2017-03-28T10:43:35.342Z,22.47
2017-03-28T10:44:35.480Z,22.6
2017-03-28T10:45:35.399Z,22.55
2017-03-28T10:46:35.156Z,22.51
2017-03-28T10:47:35.093Z,22.51
2017-03-28T10:48:34.731Z,22.41
2017-03-28T10:49:35.225Z,22.41
2017-03-28T10:50:34.907Z,22.44
2017-03-28T10:51:34.541Z,22.53
2017-03-28T10:52:34.784Z,22.48
2017-03-28T10:53:34.722Z,22.48
2017-03-28T10:54:34.655Z,22.54
2017-03-28T10:55:34.697Z,22.48
2017-03-28T10:56:34.551Z,22.44
2017-03-28T10:57:34.465Z,22.44
2017-03-28T10:58:34.410Z,22.48
2017-03-28T10:59:34.352Z,22.5
2017-03-28T11:00:34.478Z,22.51
2017-03-28T11:01:34.221Z,22.44
2017-03-28T11:02:34.155Z,22.44
2017-03-28T11:03:34.094Z,22.47
2017-03-28T11:04:34.046Z,22.48
2017-03-28T11:05:33.973Z,22.59
2017-03-28T11:06:33.907Z,22.43
2017-03-28T11:07:33.845Z,22.51
2017-03-28T11:08:33.785Z,22.47
2017-03-28T11:09:33.719Z,22.45
2017-03-28T11:10:33.355Z,22.47
2017-03-28T11:11:33.597Z,22.47
2017-03-28T11:12:33.539Z,22.51
2017-03-28T11:13:33.476Z,22.5
2017-03-28T11:14:33.410Z,22.57
2017-03-28T11:15:33.350Z,22.51
2017-03-28T11:16:33.288Z,22.54
2017-03-28T11:17:33.219Z,22.55
2017-03-28T11:18:33.156Z,22.55
2017-03-28T11:19:33.097Z,22.57
2017-03-28T11:20:33.033Z,22.62
2017-03-28T11:21:32.966Z,22.54
2017-03-28T11:22:32.659Z,22.55
2017-03-28T11:23:32.854Z,22.66
2017-03-28T11:24:32.807Z,22.66
2017-03-28T11:25:32.425Z,22.65
2017-03-28T11:26:32.664Z,22.66
2017-03-28T11:27:32.610Z,22.59
2017-03-28T11:28:32.555Z,22.6
2017-03-28T11:29:32.174Z,22.55
2017-03-28T11:30:32.406Z,22.57
2017-03-28T11:31:32.341Z,22.65
2017-03-28T11:32:31.979Z,22.65
2017-03-28T11:33:32.224Z,22.62
2017-03-28T11:34:32.159Z,22.66
2017-03-28T11:35:31.793Z,22.73
2017-03-28T11:36:32.032Z,22.6
2017-03-28T11:37:31.663Z,22.65
2017-03-28T11:38:31.905Z,22.69
2017-03-28T11:39:31.843Z,22.63
2017-03-28T11:40:31.782Z,22.62
2017-03-28T11:41:31.719Z,22.68
2017-03-28T11:42:31.658Z,22.6
2017-03-28T11:43:31.596Z,22.75
2017-03-28T11:44:31.530Z,22.68
2017-03-28T11:45:31.482Z,22.73
2017-03-28T11:46:31.408Z,22.73
2017-03-28T11:47:31.345Z,22.73
2017-03-28T11:48:31.286Z,22.72
2017-03-28T11:49:31.221Z,22.68
2017-03-28T11:50:31.254Z,22.69
2017-03-28T11:51:31.102Z,22.68
2017-03-28T11:52:31.033Z,22.75
2017-03-28T11:53:30.974Z,22.69
2017-03-28T11:54:30.917Z,22.7
2017-03-28T11:55:30.999Z,22.72
2017-03-28T11:56:30.796Z,22.73
2017-03-28T11:57:30.727Z,22.76
2017-03-28T11:58:30.666Z,22.78
2017-03-28T11:59:30.602Z,22.75
2017-03-28T12:00:30.541Z,22.81
2017-03-28T12:01:30.196Z,22.78
2017-03-28T12:02:30.414Z,22.78
2017-03-28T12:03:30.350Z,22.81
2017-03-28T12:04:30.294Z,22.81
2017-03-28T12:05:30.225Z,22.81
2017-03-28T12:06:29.856Z,22.88
2017-03-28T12:07:30.097Z,22.91
2017-03-28T12:08:30.041Z,22.94
2017-03-28T12:09:29.975Z,22.9
2017-03-28T12:10:29.907Z,23
2017-03-28T12:11:29.546Z,22.93
2017-03-28T12:12:29.785Z,22.94
2017-03-28T12:13:29.721Z,22.96
2017-03-28T12:14:29.665Z,23
2017-03-28T12:15:29.596Z,23.02
2017-03-28T12:16:29.537Z,23.08
2017-03-28T12:17:29.478Z,23.12
2017-03-28T12:18:29.414Z,23.09
2017-03-28T12:19:29.361Z,23.09
2017-03-28T12:20:29.305Z,23.18
2017-03-28T12:21:29.636Z,23.18
2017-03-28T12:22:29.388Z,23.17
2017-03-28T12:23:29.116Z,23.21
2017-03-28T12:24:29.053Z,23.21
2017-03-28T12:25:28.979Z,23.24
2017-03-28T12:26:28.918Z,23.27
2017-03-28T12:27:28.863Z,23.23
2017-03-28T12:28:28.797Z,23.21
2017-03-28T12:29:28.731Z,23.23
2017-03-28T12:30:28.670Z,23.23
2017-03-28T12:31:28.813Z,23.27
2017-03-28T12:32:28.905Z,23.27
2017-03-28T12:33:28.718Z,23.37
2017-03-28T12:34:28.125Z,23.36
2017-03-28T12:35:28.361Z,23.32
2017-03-28T12:36:28.296Z,23.32
2017-03-28T12:37:28.239Z,23.25
2017-03-28T12:38:28.179Z,23.39
2017-03-28T12:39:28.113Z,23.44
2017-03-28T12:40:28.054Z,23.43
2017-03-28T12:41:27.990Z,23.44
2017-03-28T12:42:27.624Z,23.46
2017-03-28T12:43:27.563Z,23.44
2017-03-28T12:44:27.807Z,23.44
2017-03-28T12:45:28.099Z,23.48
2017-03-28T12:46:27.682Z,23.51
2017-03-28T12:47:27.624Z,23.56
2017-03-28T12:48:27.556Z,23.5
2017-03-28T12:49:26.888Z,23.5
2017-03-28T12:50:27.446Z,23.54
2017-03-28T12:51:27.372Z,23.47
2017-03-28T12:52:27.314Z,23.54
2017-03-28T12:53:27.250Z,23.51
2017-03-28T12:54:27.192Z,23.59
2017-03-28T12:55:27.128Z,23.61
2017-03-28T12:56:27.067Z,23.61
2017-03-28T12:57:27.010Z,23.58